createdAt,value
2019-02-26T00:00:10.263Z,23.10
2019-02-26T00:01:08.806Z,22.50
2019-02-26T00:02:08.807Z,22.10
2019-02-26T00:03:08.801Z,22.50
2019-02-26T00:04:08.777Z,22.00
2019-02-26T00:05:08.769Z,23.00
2019-02-26T00:06:08.738Z,22.70
2019-02-26T00:07:09.355Z,22.60
2019-02-26T00:08:08.749Z,22.70
2019-02-26T00:09:08.762Z,22.40
2019-02-26T00:10:08.724Z,22.70
2019-02-26T00:11:10.686Z,22.40
2019-02-26T00:12:08.726Z,22.60
2019-02-26T00:13:08.718Z,22.60
2019-02-26T00:14:13.148Z,22.70
2019-02-26T00:15:09.663Z,22.20
2019-02-26T00:16:10.558Z,23.20
2019-02-26T00:17:10.645Z,22.30
2019-02-26T00:18:11.534Z,22.70
2019-02-26T00:19:09.787Z,22.70
2019-02-26T00:20:10.958Z,22.70
2019-02-26T00:21:08.555Z,23.40
2019-02-26T00:22:09.515Z,22.60
2019-02-26T00:23:09.361Z,22.30
2019-02-26T00:24:09.892Z,21.50
2019-02-26T00:25:10.338Z,21.80
2019-02-26T00:26:10.462Z,21.70
2019-02-26T00:27:09.735Z,22.60
2019-02-26T00:28:08.507Z,22.30
2019-02-26T00:29:08.497Z,21.90
2019-02-26T00:30:09.580Z,22.00
2019-02-26T00:31:08.492Z,22.40
2019-02-26T00:32:09.943Z,22.50
2019-02-26T00:33:08.463Z,22.50
2019-02-26T00:34:10.656Z,22.70
2019-02-26T00:35:08.417Z,22.30
2019-02-26T00:36:09.084Z,22.80
2019-02-26T00:37:08.531Z,22.20
2019-02-26T00:38:09.028Z,23.20
2019-02-26T00:39:08.465Z,23.00
2019-02-26T00:40:10.030Z,22.40
2019-02-26T00:41:08.341Z,23.20
2019-02-26T00:42:08.430Z,23.20
2019-02-26T00:43:08.411Z,22.90
2019-02-26T00:44:08.375Z,23.50
2019-02-26T00:45:08.347Z,23.90
2019-02-26T00:46:10.264Z,22.60
2019-02-26T00:47:09.028Z,22.30
2019-02-26T00:48:08.282Z,23.20
2019-02-26T00:49:08.305Z,22.60
2019-02-26T00:50:09.552Z,22.70
2019-02-26T00:51:08.270Z,22.80
2019-02-26T00:52:09.297Z,22.80
2019-02-26T00:53:08.258Z,21.70
2019-02-26T00:54:08.243Z,22.50
2019-02-26T00:55:09.500Z,22.00
2019-02-26T00:56:10.209Z,22.00
2019-02-26T00:57:08.875Z,23.00
2019-02-26T00:58:09.040Z,21.90
2019-02-26T00:59:08.211Z,22.40
2019-02-26T01:00:09.799Z,22.00
2019-02-26T01:01:10.304Z,22.00
2019-02-26T01:02:08.135Z,21.90
2019-02-26T01:03:09.150Z,22.00
2019-02-26T01:04:08.149Z,22.50
2019-02-26T01:05:08.728Z,21.40
2019-02-26T01:06:08.100Z,21.40
2019-02-26T01:07:08.092Z,21.90
2019-02-26T01:08:12.357Z,21.80
2019-02-26T01:09:10.694Z,22.00
2019-02-26T01:10:08.085Z,22.20
2019-02-26T01:11:08.443Z,23.00
2019-02-26T01:12:09.236Z,22.30
2019-02-26T01:13:08.028Z,22.60
2019-02-26T01:14:08.043Z,22.40
2019-02-26T01:15:09.415Z,22.40
2019-02-26T01:16:08.004Z,22.90
2019-02-26T01:17:09.851Z,22.90
2019-02-26T01:18:08.007Z,23.00
2019-02-26T01:19:09.061Z,22.30
2019-02-26T01:20:07.960Z,22.50
2019-02-26T01:21:07.989Z,23.00
2019-02-26T01:22:07.942Z,22.80
2019-02-26T01:23:07.934Z,23.00
2019-02-26T01:24:08.624Z,22.70
2019-02-26T01:25:07.935Z,22.80
2019-02-26T01:26:10.037Z,22.40
2019-02-26T01:27:07.889Z,23.00
2019-02-26T01:28:07.892Z,22.40
2019-02-26T01:29:07.887Z,22.70
2019-02-26T01:30:07.891Z,21.80
2019-02-26T01:31:07.937Z,22.70
2019-02-26T01:32:11.014Z,23.40
2019-02-26T01:33:09.782Z,22.90
2019-02-26T01:34:11.021Z,22.70
2019-02-26T01:35:09.014Z,23.00
2019-02-26T01:36:07.820Z,22.90
2019-02-26T01:37:09.878Z,23.60
2019-02-26T01:38:07.761Z,23.70
2019-02-26T01:39:11.270Z,22.70
2019-02-26T01:40:12.273Z,23.60
2019-02-26T01:41:11.249Z,23.10
2019-02-26T01:42:07.799Z,22.30
2019-02-26T01:43:07.733Z,22.60
2019-02-26T01:44:08.827Z,23.20
2019-02-26T01:45:07.743Z,23.20
2019-02-26T01:46:09.547Z,23.20
2019-02-26T01:47:07.742Z,23.20
2019-02-26T01:48:09.239Z,22.10
2019-02-26T01:49:07.682Z,22.40
2019-02-26T01:50:09.344Z,23.20
2019-02-26T01:51:07.641Z,22.80
2019-02-26T01:52:08.421Z,23.20
2019-02-26T01:53:07.666Z,23.50
2019-02-26T01:54:09.862Z,23.20
2019-02-26T01:55:07.587Z,23.10
2019-02-26T01:56:07.597Z,23.40
2019-02-26T01:57:09.146Z,23.80
2019-02-26T01:58:07.585Z,23.30
2019-02-26T01:59:07.586Z,23.10
2019-02-26T02:00:07.544Z,24.00
2019-02-26T02:01:09.951Z,23.30
2019-02-26T02:02:12.250Z,23.20
2019-02-26T02:03:08.540Z,23.70
2019-02-26T02:04:08.765Z,23.70
2019-02-26T02:05:07.490Z,23.40
2019-02-26T02:06:09.018Z,23.30
2019-02-26T02:07:07.481Z,24.10
2019-02-26T02:08:11.028Z,23.70
2019-02-26T02:09:11.289Z,24.00
2019-02-26T02:10:07.466Z,23.00
2019-02-26T02:11:09.236Z,23.60
2019-02-26T02:12:08.860Z,23.30
2019-02-26T02:13:09.167Z,22.80
2019-02-26T02:14:08.217Z,22.90
2019-02-26T02:15:08.090Z,23.10
2019-02-26T02:16:09.001Z,23.10
2019-02-26T02:17:08.522Z,23.30
2019-02-26T02:18:07.424Z,23.60
2019-02-26T02:19:07.371Z,23.60
2019-02-26T02:20:07.958Z,23.50
2019-02-26T02:21:07.410Z,24.30
2019-02-26T02:22:07.383Z,23.40
2019-02-26T02:23:07.328Z,23.20
2019-02-26T02:24:10.786Z,24.10
2019-02-26T02:25:08.288Z,24.40
2019-02-26T02:26:09.403Z,24.90
2019-02-26T02:27:07.408Z,24.70
2019-02-26T02:28:07.253Z,25.00
2019-02-26T02:29:07.300Z,25.00
2019-02-26T02:30:07.238Z,24.30
2019-02-26T02:31:07.241Z,25.50
2019-02-26T02:32:07.690Z,24.40
2019-02-26T02:33:07.193Z,24.00
2019-02-26T02:34:07.166Z,24.50
2019-02-26T02:35:09.448Z,25.20
2019-02-26T02:36:07.217Z,25.70
2019-02-26T02:37:07.190Z,24.80
2019-02-26T02:38:07.211Z,25.00
2019-02-26T02:39:10.387Z,24.90
2019-02-26T02:40:07.190Z,24.90
2019-02-26T02:41:16.976Z,25.00
2019-02-26T02:42:18.921Z,25.10
2019-02-26T02:43:18.006Z,25.60
2019-02-26T02:44:17.873Z,25.40
2019-02-26T02:45:20.205Z,26.20
2019-02-26T02:46:07.077Z,26.30
2019-02-26T02:47:16.746Z,25.60
2019-02-26T02:48:08.994Z,25.70
2019-02-26T02:49:07.994Z,25.70
2019-02-26T02:50:09.232Z,24.90
2019-02-26T02:51:08.467Z,25.10
2019-02-26T02:52:09.059Z,25.90
2019-02-26T02:53:07.007Z,25.60
2019-02-26T02:54:06.966Z,26.50
2019-02-26T02:55:09.895Z,26.40
2019-02-26T02:56:17.835Z,26.60
2019-02-26T02:57:09.435Z,26.10
2019-02-26T02:58:06.937Z,26.40
2019-02-26T02:59:08.833Z,26.90
2019-02-26T03:00:08.534Z,27.80
2019-02-26T03:01:07.301Z,27.50
2019-02-26T03:02:06.906Z,27.40
2019-02-26T03:03:06.912Z,27.20
2019-02-26T03:04:06.933Z,27.50
2019-02-26T03:05:06.873Z,27.00
2019-02-26T03:06:07.780Z,26.40
2019-02-26T03:07:06.876Z,26.80
2019-02-26T03:08:08.082Z,27.00
2019-02-26T03:09:08.737Z,27.10
2019-02-26T03:10:09.535Z,27.80
2019-02-26T03:11:06.787Z,27.70
2019-02-26T03:12:17.207Z,28.30
2019-02-26T03:13:17.066Z,28.60
2019-02-26T03:14:18.474Z,27.70
2019-02-26T03:15:16.773Z,27.80
2019-02-26T03:16:06.728Z,29.30
2019-02-26T03:17:09.184Z,30.70
2019-02-26T03:18:17.280Z,30.00
2019-02-26T03:19:07.744Z,30.20
2019-02-26T03:20:07.666Z,30.10
2019-02-26T03:21:06.708Z,29.30
2019-02-26T03:22:07.279Z,29.90
2019-02-26T03:24:27.656Z,28.00
2019-02-26T03:25:35.516Z,29.70
2019-02-26T03:26:25.893Z,29.00
2019-02-26T03:27:27.823Z,27.80
2019-02-26T03:28:24.064Z,29.60
2019-02-26T03:29:24.081Z,30.10
2019-02-26T03:30:32.135Z,29.60
2019-02-26T03:31:28.523Z,28.40
2019-02-26T03:32:24.018Z,29.10
2019-02-26T03:33:24.046Z,29.50
2019-02-26T03:34:25.285Z,32.30
2019-02-26T03:35:24.004Z,31.20
2019-02-26T03:36:23.967Z,30.80
2019-02-26T03:37:25.689Z,30.20
2019-02-26T03:38:26.234Z,31.60
2019-02-26T03:39:23.977Z,30.80
2019-02-26T03:40:26.558Z,31.90
2019-02-26T03:41:26.130Z,32.20
2019-02-26T03:42:23.918Z,32.70
2019-02-26T03:43:23.911Z,32.10
2019-02-26T03:44:23.903Z,32.90
2019-02-26T03:45:25.096Z,32.60
2019-02-26T03:46:23.896Z,31.90
2019-02-26T03:47:23.844Z,33.70
2019-02-26T03:48:23.856Z,34.20
2019-02-26T03:49:27.102Z,32.10
2019-02-26T03:50:26.434Z,32.50
2019-02-26T03:51:23.837Z,32.60
2019-02-26T03:52:23.811Z,31.00
2019-02-26T03:53:34.268Z,31.70
2019-02-26T03:54:23.761Z,32.60
2019-02-26T03:55:23.768Z,32.70
2019-02-26T03:56:24.411Z,31.40
2019-02-26T03:57:24.788Z,32.90
2019-02-26T03:58:23.723Z,32.10
2019-02-26T04:00:16.830Z,33.30
2019-02-26T04:01:18.326Z,33.90
2019-02-26T04:02:17.455Z,33.30
2019-02-26T04:03:17.312Z,31.90
2019-02-26T04:04:14.932Z,32.50
2019-02-26T04:05:14.941Z,31.80
2019-02-26T04:06:14.984Z,30.90
2019-02-26T04:07:14.946Z,31.90
2019-02-26T04:08:16.651Z,31.90
2019-02-26T04:09:17.219Z,31.60
2019-02-26T04:10:14.880Z,31.20
2019-02-26T04:11:16.855Z,32.90
2019-02-26T04:12:15.480Z,32.80
2019-02-26T04:13:14.887Z,30.70
2019-02-26T04:14:15.357Z,30.90
2019-02-26T04:15:14.890Z,32.30
2019-02-26T04:16:14.858Z,33.00
2019-02-26T04:17:14.800Z,33.90
2019-02-26T04:18:14.797Z,33.30
2019-02-26T04:19:14.799Z,32.60
2019-02-26T04:20:14.818Z,31.50
2019-02-26T04:21:15.790Z,34.30
2019-02-26T04:22:15.230Z,33.70
2019-02-26T04:23:18.714Z,33.90
2019-02-26T04:24:14.729Z,35.60
2019-02-26T04:25:14.730Z,36.70
2019-02-26T04:26:18.551Z,36.00
2019-02-26T04:27:15.708Z,35.60
2019-02-26T04:28:14.732Z,34.40
2019-02-26T04:29:14.673Z,34.30
2019-02-26T04:30:16.241Z,33.20
2019-02-26T04:31:15.501Z,33.50
2019-02-26T04:32:15.950Z,32.40
2019-02-26T04:33:14.661Z,33.40
2019-02-26T04:34:14.652Z,33.40
2019-02-26T04:35:14.692Z,35.30
2019-02-26T04:36:16.794Z,34.60
2019-02-26T04:37:14.709Z,34.70
2019-02-26T04:38:14.562Z,34.30
2019-02-26T04:39:18.358Z,33.10
2019-02-26T04:40:14.614Z,34.00
2019-02-26T04:41:15.984Z,34.80
2019-02-26T04:42:17.619Z,35.10
2019-02-26T04:43:15.513Z,35.60
2019-02-26T04:44:14.520Z,35.00
2019-02-26T04:45:14.675Z,34.50
2019-02-26T04:46:17.553Z,35.10
2019-02-26T04:47:14.492Z,35.80
2019-02-26T04:48:17.136Z,34.30
2019-02-26T04:49:14.479Z,34.40
2019-02-26T04:50:14.496Z,34.60
2019-02-26T04:51:14.517Z,35.30
2019-02-26T04:52:17.286Z,36.40
2019-02-26T04:53:14.430Z,36.20
2019-02-26T04:54:21.109Z,35.10
2019-02-26T04:55:15.467Z,35.00
2019-02-26T04:56:15.065Z,34.50
2019-02-26T04:57:14.375Z,35.80
2019-02-26T04:58:15.542Z,34.90
2019-02-26T04:59:16.786Z,34.60
2019-02-26T05:00:14.373Z,34.10
2019-02-26T05:01:16.391Z,35.20
2019-02-26T05:02:14.387Z,35.20
2019-02-26T05:03:17.008Z,34.70
2019-02-26T05:04:14.368Z,34.60
2019-02-26T05:05:14.313Z,34.50
2019-02-26T05:06:14.393Z,34.50
2019-02-26T05:07:17.303Z,35.60
2019-02-26T05:08:17.649Z,36.40
2019-02-26T05:09:14.256Z,37.10
2019-02-26T05:10:14.279Z,36.60
2019-02-26T05:11:22.788Z,38.10
2019-02-26T05:12:15.832Z,38.10
2019-02-26T05:13:14.207Z,37.90
2019-02-26T05:14:15.393Z,36.00
2019-02-26T05:15:18.066Z,36.00
2019-02-26T05:16:15.172Z,36.30
2019-02-26T05:17:14.177Z,36.90
2019-02-26T05:18:14.168Z,36.40
2019-02-26T05:19:16.381Z,37.10
2019-02-26T05:20:16.574Z,37.80
2019-02-26T05:21:14.145Z,36.90
2019-02-26T05:22:14.189Z,37.90
2019-02-26T05:23:14.147Z,37.80
2019-02-26T05:24:15.735Z,38.40
2019-02-26T05:25:16.785Z,37.00
2019-02-26T05:26:17.850Z,37.10
2019-02-26T05:27:15.635Z,36.90
2019-02-26T05:28:15.618Z,37.30
2019-02-26T05:29:14.103Z,38.00
2019-02-26T05:30:17.163Z,36.50
2019-02-26T05:31:17.269Z,36.60
2019-02-26T05:32:14.023Z,38.20
2019-02-26T05:33:14.009Z,38.80
2019-02-26T05:34:15.145Z,37.60
2019-02-26T05:35:15.216Z,37.90
2019-02-26T05:36:15.100Z,37.90
2019-02-26T05:37:14.093Z,37.80
2019-02-26T05:38:13.934Z,38.30
2019-02-26T05:39:14.574Z,37.80
2019-02-26T05:40:16.396Z,37.90
2019-02-26T05:41:14.929Z,37.70
2019-02-26T05:42:14.093Z,36.70
2019-02-26T05:43:16.004Z,38.30
2019-02-26T05:44:17.549Z,37.40
2019-02-26T05:45:15.963Z,37.30
2019-02-26T05:46:16.024Z,37.20
2019-02-26T05:47:18.697Z,36.80
2019-02-26T05:48:20.579Z,37.20
2019-02-26T05:49:16.404Z,36.40
2019-02-26T05:50:16.601Z,38.00
2019-02-26T05:51:13.852Z,37.00
2019-02-26T05:52:18.631Z,36.00
2019-02-26T05:53:14.439Z,36.10
2019-02-26T05:54:15.294Z,37.70
2019-02-26T05:55:14.610Z,36.40
2019-02-26T05:56:14.583Z,38.10
2019-02-26T05:57:25.938Z,38.60
2019-02-26T05:58:18.038Z,37.80
2019-02-26T05:59:15.411Z,39.80
2019-02-26T06:00:17.237Z,38.60
2019-02-26T06:01:16.877Z,37.50
2019-02-26T06:02:16.196Z,36.40
2019-02-26T06:03:16.269Z,37.80
2019-02-26T06:04:15.033Z,38.20
2019-02-26T06:05:14.357Z,38.30
2019-02-26T06:06:14.056Z,37.80
2019-02-26T06:07:14.202Z,38.10
2019-02-26T06:08:13.770Z,37.80
2019-02-26T06:09:13.770Z,39.20
2019-02-26T06:10:13.748Z,37.90
2019-02-26T06:11:16.922Z,37.70
2019-02-26T06:12:16.085Z,37.40
2019-02-26T06:13:15.727Z,37.80
2019-02-26T06:14:14.219Z,37.30
2019-02-26T06:15:13.928Z,38.50
2019-02-26T06:16:14.293Z,37.20
2019-02-26T06:17:15.548Z,37.60
2019-02-26T06:18:14.075Z,37.50
2019-02-26T06:19:15.704Z,38.30
2019-02-26T06:20:13.536Z,38.90
2019-02-26T06:21:15.806Z,39.00
2019-02-26T06:22:17.012Z,38.40
2019-02-26T06:23:17.868Z,39.40
2019-02-26T06:24:13.612Z,37.80
2019-02-26T06:25:18.697Z,38.40
2019-02-26T06:26:17.638Z,39.90
2019-02-26T06:27:27.288Z,40.20
2019-02-26T06:28:16.119Z,40.80
2019-02-26T06:29:19.948Z,40.10
2019-02-26T06:30:14.423Z,39.90
2019-02-26T06:31:14.639Z,41.10
2019-02-26T06:32:13.402Z,40.10
2019-02-26T06:33:14.051Z,40.60
2019-02-26T06:34:14.339Z,40.50
2019-02-26T06:35:14.292Z,40.10
2019-02-26T06:36:13.339Z,40.30
2019-02-26T06:37:13.931Z,40.20
2019-02-26T06:38:13.351Z,40.20
2019-02-26T06:39:13.313Z,40.70
2019-02-26T06:40:13.331Z,39.50
2019-02-26T06:41:13.279Z,40.40
2019-02-26T06:42:14.500Z,38.90
2019-02-26T06:43:13.246Z,40.70
2019-02-26T06:44:13.241Z,41.40
2019-02-26T06:45:13.904Z,40.80
2019-02-26T06:46:14.191Z,40.70
2019-02-26T06:47:13.216Z,40.70
2019-02-26T06:48:16.937Z,39.90
2019-02-26T06:49:14.958Z,39.50
2019-02-26T06:50:15.333Z,41.30
2019-02-26T06:51:13.242Z,41.40
2019-02-26T06:52:15.359Z,40.40
2019-02-26T06:53:13.636Z,40.80
2019-02-26T06:54:15.373Z,40.50
2019-02-26T06:55:13.147Z,40.80
2019-02-26T06:56:13.135Z,40.40
2019-02-26T06:57:13.168Z,40.90
2019-02-26T06:58:13.102Z,40.00
2019-02-26T06:59:13.143Z,39.20
2019-02-26T07:00:13.073Z,40.30
2019-02-26T07:01:14.333Z,41.40
2019-02-26T07:02:13.118Z,40.90
2019-02-26T07:03:13.050Z,40.60
2019-02-26T07:04:13.105Z,42.40
2019-02-26T07:05:13.033Z,42.10
2019-02-26T07:06:13.031Z,40.10
2019-02-26T07:07:14.447Z,45.40
2019-02-26T07:08:13.011Z,45.90
2019-02-26T07:09:13.783Z,47.40
2019-02-26T07:10:15.970Z,43.60
2019-02-26T07:11:13.990Z,41.90
2019-02-26T07:12:14.627Z,41.30
2019-02-26T07:13:14.153Z,43.40
2019-02-26T07:14:12.949Z,40.00
2019-02-26T07:15:12.940Z,45.40
2019-02-26T07:16:12.955Z,42.90
2019-02-26T07:17:12.927Z,42.90
2019-02-26T07:18:16.992Z,43.00
2019-02-26T07:19:15.097Z,42.50
2019-02-26T07:20:12.896Z,43.90
2019-02-26T07:21:12.853Z,41.40
2019-02-26T07:22:13.530Z,40.90
2019-02-26T07:23:14.952Z,41.30
2019-02-26T07:24:12.885Z,41.30
2019-02-26T07:25:15.334Z,40.90
2019-02-26T07:26:13.619Z,40.90
2019-02-26T07:27:13.923Z,40.80
2019-02-26T07:28:12.793Z,41.30
2019-02-26T07:29:14.389Z,39.10
2019-02-26T07:30:12.773Z,40.10
2019-02-26T07:31:12.747Z,41.10
2019-02-26T07:32:14.601Z,41.50
2019-02-26T07:33:15.053Z,41.60
2019-02-26T07:34:12.786Z,41.80
2019-02-26T07:35:14.373Z,40.80
2019-02-26T07:36:12.702Z,41.60
2019-02-26T07:37:13.469Z,41.50
2019-02-26T07:38:12.683Z,41.10
2019-02-26T07:39:13.525Z,41.10
2019-02-26T07:40:15.193Z,40.70
2019-02-26T07:41:12.662Z,40.40
2019-02-26T07:42:14.716Z,39.90
2019-02-26T07:43:14.847Z,41.00
2019-02-26T07:44:15.561Z,40.20
2019-02-26T07:45:15.235Z,41.00
2019-02-26T07:46:14.471Z,40.70
2019-02-26T07:47:12.586Z,40.10
2019-02-26T07:48:16.069Z,40.40
2019-02-26T07:49:12.570Z,40.60
2019-02-26T07:50:14.583Z,41.50
2019-02-26T07:51:12.632Z,41.80
2019-02-26T07:52:12.545Z,40.30
2019-02-26T07:53:14.350Z,40.20
2019-02-26T07:54:12.510Z,39.80
2019-02-26T07:55:14.712Z,40.00
2019-02-26T07:56:12.711Z,41.20
2019-02-26T07:57:12.560Z,39.70
2019-02-26T07:58:13.763Z,39.60
2019-02-26T07:59:13.101Z,40.30
2019-02-26T08:00:12.460Z,39.20
2019-02-26T08:01:12.459Z,39.70
2019-02-26T08:02:13.585Z,41.00
2019-02-26T08:03:12.463Z,39.90
2019-02-26T08:04:13.576Z,39.50
2019-02-26T08:05:12.454Z,41.60
2019-02-26T08:06:14.054Z,39.60
2019-02-26T08:07:12.379Z,39.90
2019-02-26T08:08:14.225Z,40.50
2019-02-26T08:09:14.549Z,39.20
2019-02-26T08:10:14.484Z,40.10
2019-02-26T08:11:12.369Z,40.50
2019-02-26T08:12:13.706Z,41.00
2019-02-26T08:13:12.356Z,40.50
2019-02-26T08:14:14.362Z,41.20
2019-02-26T08:15:12.822Z,42.40
2019-02-26T08:16:12.303Z,41.60
2019-02-26T08:17:12.270Z,40.90
2019-02-26T08:18:12.292Z,41.50
2019-02-26T08:19:12.297Z,41.70
2019-02-26T08:20:14.602Z,41.70
2019-02-26T08:21:12.234Z,41.90
2019-02-26T08:22:12.220Z,41.40
2019-02-26T08:23:12.207Z,42.40
2019-02-26T08:24:14.407Z,40.30
2019-02-26T08:25:12.204Z,40.40
2019-02-26T08:26:12.803Z,42.10
2019-02-26T08:27:13.574Z,41.40
2019-02-26T08:28:13.511Z,41.10
2019-02-26T08:29:12.507Z,41.70
2019-02-26T08:30:14.169Z,42.30
2019-02-26T08:31:15.455Z,42.00
2019-02-26T08:32:15.860Z,42.10
2019-02-26T08:33:13.147Z,41.60
2019-02-26T08:34:13.497Z,42.40
2019-02-26T08:35:12.091Z,42.80
2019-02-26T08:36:14.103Z,42.40
2019-02-26T08:37:12.052Z,41.90
2019-02-26T08:38:12.045Z,42.80
2019-02-26T08:39:14.948Z,42.60
2019-02-26T08:40:12.061Z,43.10
2019-02-26T08:41:12.099Z,42.40
2019-02-26T08:42:12.028Z,42.40
2019-02-26T08:43:12.018Z,42.30
2019-02-26T08:44:12.025Z,40.70
2019-02-26T08:45:12.494Z,41.70
2019-02-26T08:46:13.948Z,41.60
2019-02-26T08:47:14.015Z,40.80
2019-02-26T08:48:13.269Z,42.50
2019-02-26T08:49:13.756Z,41.90
2019-02-26T08:50:12.459Z,40.80
2019-02-26T08:51:16.051Z,43.40
2019-02-26T08:52:12.826Z,42.80
2019-02-26T08:53:11.893Z,42.50
2019-02-26T08:54:20.587Z,41.70
2019-02-26T08:55:13.650Z,42.30
2019-02-26T08:56:11.869Z,42.90
2019-02-26T08:57:12.052Z,41.30
2019-02-26T08:58:12.534Z,41.90
2019-02-26T08:59:11.835Z,42.20
2019-02-26T09:00:11.832Z,42.30
2019-02-26T09:01:11.818Z,42.30
2019-02-26T09:02:11.869Z,42.70
2019-02-26T09:03:13.837Z,43.90
2019-02-26T09:04:12.363Z,42.80
2019-02-26T09:05:11.994Z,44.30
2019-02-26T09:06:13.625Z,43.90
2019-02-26T09:07:11.745Z,43.20
2019-02-26T09:08:14.000Z,44.90
2019-02-26T09:09:11.727Z,45.40
2019-02-26T09:10:13.104Z,44.60
2019-02-26T09:11:13.539Z,44.80
2019-02-26T09:12:11.697Z,45.70
2019-02-26T09:13:13.840Z,44.00
2019-02-26T09:14:13.985Z,43.70
2019-02-26T09:15:11.674Z,43.90
2019-02-26T09:16:11.657Z,42.70
2019-02-26T09:17:11.644Z,43.70
2019-02-26T09:18:11.632Z,43.90
2019-02-26T09:19:11.633Z,44.20
2019-02-26T09:20:12.324Z,44.40
2019-02-26T09:21:13.467Z,43.00
2019-02-26T09:22:14.043Z,43.60
2019-02-26T09:23:16.386Z,43.80
2019-02-26T09:24:12.639Z,44.60
2019-02-26T09:25:11.552Z,44.30
2019-02-26T09:26:11.553Z,42.90
2019-02-26T09:27:11.544Z,43.80
2019-02-26T09:28:11.527Z,43.60
2019-02-26T09:29:12.721Z,43.20
2019-02-26T09:30:13.463Z,44.30
2019-02-26T09:31:12.275Z,43.90
2019-02-26T09:32:12.171Z,43.60
2019-02-26T09:33:11.508Z,44.00
2019-02-26T09:34:11.473Z,43.60
2019-02-26T09:35:12.265Z,43.70
2019-02-26T09:36:14.959Z,43.50
2019-02-26T09:37:11.460Z,44.10
2019-02-26T09:38:12.339Z,43.80
2019-02-26T09:39:13.035Z,43.60
2019-02-26T09:40:11.400Z,44.00
2019-02-26T09:41:12.254Z,42.20
2019-02-26T09:42:11.370Z,43.00
2019-02-26T09:43:12.914Z,42.40
2019-02-26T09:44:11.675Z,43.00
2019-02-26T09:45:11.395Z,43.00
2019-02-26T09:46:14.426Z,43.30
2019-02-26T09:47:11.332Z,43.20
2019-02-26T09:48:12.291Z,43.00
2019-02-26T09:49:12.629Z,42.50
2019-02-26T09:50:12.930Z,42.80
2019-02-26T09:51:12.447Z,42.00
2019-02-26T09:52:11.274Z,44.20
2019-02-26T09:53:11.275Z,42.20
2019-02-26T09:54:13.194Z,43.60
2019-02-26T09:55:11.261Z,43.20
2019-02-26T09:56:11.241Z,42.80
2019-02-26T09:57:11.273Z,43.30
2019-02-26T09:58:13.337Z,42.60
2019-02-26T09:59:13.042Z,44.00
2019-02-26T10:00:11.189Z,44.10
2019-02-26T10:01:13.403Z,43.50
2019-02-26T10:02:11.179Z,42.70
2019-02-26T10:03:13.220Z,43.90
2019-02-26T10:04:11.185Z,43.70
2019-02-26T10:05:11.788Z,43.30
2019-02-26T10:06:11.875Z,43.00
2019-02-26T10:07:11.834Z,43.20
2019-02-26T10:08:11.105Z,43.70
2019-02-26T10:09:13.160Z,43.20
2019-02-26T10:10:12.160Z,44.10
2019-02-26T10:11:11.065Z,44.60
2019-02-26T10:12:15.139Z,43.30
2019-02-26T10:13:11.043Z,44.20
2019-02-26T10:14:12.681Z,43.80
2019-02-26T10:15:11.025Z,43.70
2019-02-26T10:16:11.044Z,41.30
2019-02-26T10:17:12.214Z,43.60
2019-02-26T10:18:10.988Z,41.90
2019-02-26T10:19:12.629Z,43.00
2019-02-26T10:20:10.988Z,43.90
2019-02-26T10:21:12.332Z,43.80
2019-02-26T10:22:13.666Z,43.40
2019-02-26T10:23:10.943Z,43.80
2019-02-26T10:24:10.931Z,43.40
2019-02-26T10:25:10.927Z,42.40
2019-02-26T10:26:10.997Z,43.30
2019-02-26T10:27:12.096Z,44.10
2019-02-26T10:28:11.617Z,43.40
2019-02-26T10:29:10.884Z,44.60
2019-02-26T10:30:13.471Z,43.70
2019-02-26T10:31:10.865Z,43.50
2019-02-26T10:32:11.795Z,43.40
2019-02-26T10:33:10.865Z,44.00
2019-02-26T10:34:12.783Z,43.90
2019-02-26T10:35:14.013Z,44.40
2019-02-26T10:36:13.489Z,42.50
2019-02-26T10:37:10.822Z,43.50
2019-02-26T10:38:11.705Z,43.00
2019-02-26T10:39:10.776Z,44.50
2019-02-26T10:40:12.070Z,42.90
2019-02-26T10:41:10.762Z,43.80
2019-02-26T10:42:12.458Z,44.40
2019-02-26T10:43:11.048Z,42.80
2019-02-26T10:44:10.734Z,42.80
2019-02-26T10:45:10.712Z,42.30
2019-02-26T10:46:10.832Z,43.80
2019-02-26T10:47:10.775Z,43.30
2019-02-26T10:48:10.693Z,41.80
2019-02-26T10:49:12.401Z,43.40
2019-02-26T10:50:12.852Z,42.70
2019-02-26T10:51:10.652Z,43.90
2019-02-26T10:52:13.377Z,42.70
2019-02-26T10:53:13.775Z,42.40
2019-02-26T10:54:13.742Z,44.00
2019-02-26T10:55:14.980Z,43.50
2019-02-26T10:56:10.613Z,43.90
2019-02-26T10:57:11.902Z,43.70
2019-02-26T10:58:13.037Z,42.70
2019-02-26T10:59:12.712Z,44.60
2019-02-26T11:00:11.574Z,46.60
2019-02-26T11:01:10.560Z,50.40
2019-02-26T11:02:10.538Z,45.90
2019-02-26T11:03:12.901Z,47.20
2019-02-26T11:04:10.511Z,45.50
2019-02-26T11:05:11.360Z,46.20
2019-02-26T11:06:13.108Z,46.90
2019-02-26T11:07:12.403Z,46.20
2019-02-26T11:08:10.491Z,46.30
2019-02-26T11:09:10.475Z,48.00
2019-02-26T11:10:11.915Z,47.00
2019-02-26T11:11:12.839Z,48.30
2019-02-26T11:12:10.449Z,50.70
2019-02-26T11:13:12.459Z,47.90
2019-02-26T11:14:11.313Z,52.50
2019-02-26T11:15:10.432Z,48.30
2019-02-26T11:16:10.443Z,46.80
2019-02-26T11:17:10.454Z,47.90
2019-02-26T11:18:11.784Z,47.20
2019-02-26T11:19:12.184Z,46.30
2019-02-26T11:20:10.363Z,47.00
2019-02-26T11:21:10.356Z,46.30
2019-02-26T11:22:10.382Z,46.70
2019-02-26T11:23:13.268Z,47.20
2019-02-26T11:24:11.259Z,47.30
2019-02-26T11:25:10.325Z,46.70
2019-02-26T11:26:12.556Z,46.60
2019-02-26T11:27:10.278Z,45.90
2019-02-26T11:28:12.845Z,46.20
2019-02-26T11:29:10.353Z,45.90
2019-02-26T11:30:10.258Z,45.30
2019-02-26T11:31:12.240Z,44.70
2019-02-26T11:32:11.144Z,46.30
2019-02-26T11:33:11.354Z,45.70
2019-02-26T11:34:12.757Z,46.60
2019-02-26T11:35:10.189Z,44.70
2019-02-26T11:36:12.604Z,45.60
2019-02-26T11:37:10.204Z,45.40
2019-02-26T11:38:12.327Z,45.20
2019-02-26T11:39:12.009Z,44.60
2019-02-26T11:40:10.185Z,45.10
2019-02-26T11:41:10.179Z,46.10
2019-02-26T11:42:10.531Z,45.30
2019-02-26T11:43:13.795Z,45.00
2019-02-26T11:44:12.689Z,44.10
2019-02-26T11:45:12.616Z,44.60
2019-02-26T11:46:10.106Z,45.70
2019-02-26T11:47:11.216Z,45.20
2019-02-26T11:48:10.144Z,44.40
2019-02-26T11:49:11.881Z,45.30
2019-02-26T11:50:11.801Z,43.30
2019-02-26T11:51:11.958Z,44.40
2019-02-26T11:52:10.004Z,44.00
2019-02-26T11:53:10.110Z,45.80
2019-02-26T11:54:10.752Z,45.00
2019-02-26T11:55:11.277Z,44.20
2019-02-26T11:56:10.018Z,43.20
2019-02-26T11:57:11.236Z,44.60
2019-02-26T11:58:10.209Z,45.20
2019-02-26T11:59:12.455Z,45.30
2019-02-26T12:00:09.935Z,45.00
2019-02-26T12:01:09.915Z,44.90
2019-02-26T12:02:09.933Z,44.70
2019-02-26T12:03:09.928Z,43.90
2019-02-26T12:04:11.219Z,43.50
2019-02-26T12:05:10.752Z,44.60
2019-02-26T12:06:09.884Z,45.00
2019-02-26T12:07:09.922Z,43.70
2019-02-26T12:08:11.497Z,42.80
2019-02-26T12:09:11.429Z,43.70
2019-02-26T12:10:12.393Z,41.90
2019-02-26T12:12:11.634Z,43.50
2019-02-26T12:13:09.794Z,43.10
2019-02-26T12:14:10.966Z,43.00
2019-02-26T12:15:12.298Z,43.80
2019-02-26T12:16:09.775Z,43.50
2019-02-26T12:17:09.741Z,44.10
2019-02-26T12:18:10.587Z,42.50
2019-02-26T12:19:10.795Z,43.30
2019-02-26T12:20:09.696Z,43.80
2019-02-26T12:21:10.544Z,43.70
2019-02-26T12:22:09.739Z,43.00
2019-02-26T12:23:11.549Z,43.60
2019-02-26T12:24:12.007Z,42.40
2019-02-26T12:25:11.104Z,41.40
2019-02-26T12:26:09.665Z,42.80
2019-02-26T12:27:10.827Z,42.20
2019-02-26T12:28:11.575Z,42.50
2019-02-26T12:29:09.614Z,41.40
2019-02-26T12:30:10.096Z,42.50
2019-02-26T12:31:12.647Z,41.80
2019-02-26T12:32:09.585Z,41.40
2019-02-26T12:33:12.182Z,41.80
2019-02-26T12:34:11.816Z,41.00
2019-02-26T12:35:12.142Z,41.90
2019-02-26T12:36:10.264Z,41.20
2019-02-26T12:37:11.693Z,42.30
2019-02-26T12:39:10.503Z,42.30
2019-02-26T12:40:10.413Z,41.70
2019-02-26T12:41:12.032Z,41.50
2019-02-26T12:42:10.651Z,41.40
2019-02-26T12:43:11.888Z,41.50
2019-02-26T12:44:13.307Z,42.10
2019-02-26T12:45:13.080Z,42.00
2019-02-26T12:46:09.444Z,42.30
2019-02-26T12:47:11.515Z,42.60
2019-02-26T12:48:10.205Z,42.50
2019-02-26T12:49:12.012Z,42.70
2019-02-26T12:50:11.539Z,43.50
2019-02-26T12:51:09.462Z,43.90
2019-02-26T12:52:09.370Z,42.80
2019-02-26T12:53:12.736Z,43.00
2019-02-26T12:54:13.704Z,43.20
2019-02-26T12:55:10.538Z,44.20
2019-02-26T12:56:09.343Z,44.00